Terminal Aerodrome Forecast
Issued by NWS

Home | Current Version | Previous Version | Text Only | Print | Product List | Glossary On
Versions: 1 2 3 4 5 6 7 8 9 10 11 12 13 14 15 16 17 18 19 20 21 22 23 24 25 26 27 28 29 30 31 32 33
575
FTUS41 KBUF 290207 AAA
TAFIAG
TAF AMD
KIAG 290207Z 2902/2924 35008KT P6SM BKN020
     FM291000 36010KT P6SM BKN025
     FM291700 36008KT P6SM SCT040
     FM292200 35005KT P6SM SCT250=

USA.gov is the U.S. government's official web portal to all federal, state and local government web resources and services.